sensor_id;sensor_type;location;lat;lon;timestamp;P1;durP1;ratioP1;P2;durP2;ratioP2
3050;SDS011;1535;51.098;6.414;2023-06-10T00:02:05;9.50;;;9.20;;
3050;SDS011;1535;51.098;6.414;2023-06-10T00:04:32;9.70;;;9.40;;
3050;SDS011;1535;51.098;6.414;2023-06-10T00:06:59;9.50;;;9.20;;
3050;SDS011;1535;51.098;6.414;2023-06-10T00:09:27;9.20;;;8.90;;
3050;SDS011;1535;51.098;6.414;2023-06-10T00:11:54;9.73;;;9.33;;
3050;SDS011;1535;51.098;6.414;2023-06-10T00:14:21;10.27;;;9.87;;
3050;SDS011;1535;51.098;6.414;2023-06-10T00:16:48;9.60;;;9.30;;
3050;SDS011;1535;51.098;6.414;2023-06-10T00:19:15;10.10;;;9.70;;
3050;SDS011;1535;51.098;6.414;2023-06-10T00:21:44;9.53;;;9.23;;
3050;SDS011;1535;51.098;6.414;2023-06-10T00:24:10;9.53;;;9.23;;
3050;SDS011;1535;51.098;6.414;2023-06-10T00:26:39;9.40;;;9.10;;
3050;SDS011;1535;51.098;6.414;2023-06-10T00:29:06;9.77;;;9.37;;
3050;SDS011;1535;51.098;6.414;2023-06-10T00:31:33;9.40;;;9.10;;
3050;SDS011;1535;51.098;6.414;2023-06-10T00:34:02;9.40;;;9.10;;
3050;SDS011;1535;51.098;6.414;2023-06-10T00:36:28;9.87;;;9.57;;
3050;SDS011;1535;51.098;6.414;2023-06-10T00:38:56;9.60;;;9.30;;
3050;SDS011;1535;51.098;6.414;2023-06-10T00:41:23;9.53;;;9.23;;
3050;SDS011;1535;51.098;6.414;2023-06-10T00:43:53;9.83;;;9.53;;
3050;SDS011;1535;51.098;6.414;2023-06-10T00:46:20;9.87;;;9.57;;
3050;SDS011;1535;51.098;6.414;2023-06-10T00:48:49;9.80;;;9.50;;
3050;SDS011;1535;51.098;6.414;2023-06-10T00:51:16;9.67;;;9.37;;
3050;SDS011;1535;51.098;6.414;2023-06-10T00:53:43;9.97;;;9.67;;
3050;SDS011;1535;51.098;6.414;2023-06-10T00:56:10;10.70;;;10.30;;
3050;SDS011;1535;51.098;6.414;2023-06-10T00:58:40;9.60;;;9.30;;
3050;SDS011;1535;51.098;6.414;2023-06-10T01:01:08;9.83;;;9.53;;
3050;SDS011;1535;51.098;6.414;2023-06-10T01:03:37;9.97;;;9.67;;
3050;SDS011;1535;51.098;6.414;2023-06-10T01:06:06;10.80;;;10.40;;
3050;SDS011;1535;51.098;6.414;2023-06-10T01:08:45;10.63;;;10.23;;
3050;SDS011;1535;51.098;6.414;2023-06-10T01:11:19;9.83;;;9.53;;
3050;SDS011;1535;51.098;6.414;2023-06-10T01:13:50;9.80;;;9.50;;
3050;SDS011;1535;51.098;6.414;2023-06-10T01:16:19;9.83;;;9.53;;
3050;SDS011;1535;51.098;6.414;2023-06-10T01:18:46;9.83;;;9.53;;
3050;SDS011;1535;51.098;6.414;2023-06-10T01:21:17;9.63;;;9.33;;
3050;SDS011;1535;51.098;6.414;2023-06-10T01:23:46;10.50;;;10.10;;
3050;SDS011;1535;51.098;6.414;2023-06-10T01:26:13;9.90;;;9.60;;
3050;SDS011;1535;51.098;6.414;2023-06-10T01:28:44;9.70;;;9.40;;
3050;SDS011;1535;51.098;6.414;2023-06-10T01:31:16;10.87;;;10.47;;
3050;SDS011;1535;51.098;6.414;2023-06-10T01:33:47;10.10;;;9.80;;
3050;SDS011;1535;51.098;6.414;2023-06-10T01:36:19;9.93;;;9.63;;
3050;SDS011;1535;51.098;6.414;2023-06-10T01:38:49;10.43;;;10.03;;
3050;SDS011;1535;51.098;6.414;2023-06-10T01:41:19;10.23;;;9.83;;
3050;SDS011;1535;51.098;6.414;2023-06-10T01:43:47;10.80;;;10.40;;
3050;SDS011;1535;51.098;6.414;2023-06-10T01:46:14;12.63;;;12.13;;
3050;SDS011;1535;51.098;6.414;2023-06-10T01:48:44;10.80;;;10.40;;
3050;SDS011;1535;51.098;6.414;2023-06-10T01:51:11;9.60;;;9.30;;
3050;SDS011;1535;51.098;6.414;2023-06-10T01:53:39;9.93;;;9.63;;
3050;SDS011;1535;51.098;6.414;2023-06-10T01:56:06;10.63;;;10.23;;
3050;SDS011;1535;51.098;6.414;2023-06-10T01:58:33;9.80;;;9.50;;
3050;SDS011;1535;51.098;6.414;2023-06-10T02:01:00;10.37;;;9.97;;
3050;SDS011;1535;51.098;6.414;2023-06-10T02:03:27;11.13;;;10.73;;
3050;SDS011;1535;51.098;6.414;2023-06-10T02:05:54;9.40;;;9.10;;
3050;SDS011;1535;51.098;6.414;2023-06-10T02:08:21;9.67;;;9.37;;
3050;SDS011;1535;51.098;6.414;2023-06-10T02:10:49;9.43;;;9.13;;
3050;SDS011;1535;51.098;6.414;2023-06-10T02:13:17;9.80;;;9.50;;
3050;SDS011;1535;51.098;6.414;2023-06-10T02:15:44;10.20;;;9.80;;
3050;SDS011;1535;51.098;6.414;2023-06-10T02:18:11;9.53;;;9.23;;
3050;SDS011;1535;51.098;6.414;2023-06-10T02:20:38;9.70;;;9.40;;
3050;SDS011;1535;51.098;6.414;2023-06-10T02:23:05;10.27;;;9.87;;
3050;SDS011;1535;51.098;6.414;2023-06-10T02:25:32;10.13;;;9.80;;
3050;SDS011;1535;51.098;6.414;2023-06-10T02:28:00;10.30;;;9.93;;
3050;SDS011;1535;51.098;6.414;2023-06-10T02:30:28;10.13;;;9.73;;
3050;SDS011;1535;51.098;6.414;2023-06-10T02:32:55;9.40;;;9.10;;
3050;SDS011;1535;51.098;6.414;2023-06-10T02:35:22;10.60;;;10.20;;
3050;SDS011;1535;51.098;6.414;2023-06-10T02:37:50;9.10;;;8.80;;
3050;SDS011;1535;51.098;6.414;2023-06-10T02:40:19;9.37;;;9.07;;
3050;SDS011;1535;51.098;6.414;2023-06-10T02:42:47;9.20;;;8.90;;
3050;SDS011;1535;51.098;6.414;2023-06-10T02:45:15;9.43;;;9.13;;
3050;SDS011;1535;51.098;6.414;2023-06-10T02:47:43;9.60;;;9.30;;
3050;SDS011;1535;51.098;6.414;2023-06-10T02:50:10;9.60;;;9.30;;
3050;SDS011;1535;51.098;6.414;2023-06-10T02:52:38;9.07;;;8.77;;
3050;SDS011;1535;51.098;6.414;2023-06-10T02:55:05;10.40;;;10.00;;
3050;SDS011;1535;51.098;6.414;2023-06-10T02:57:32;9.40;;;9.10;;
3050;SDS011;1535;51.098;6.414;2023-06-10T03:00:00;10.37;;;9.77;;
3050;SDS011;1535;51.098;6.414;2023-06-10T03:02:35;8.80;;;8.50;;
3050;SDS011;1535;51.098;6.414;2023-06-10T03:05:04;9.07;;;8.77;;
3050;SDS011;1535;51.098;6.414;2023-06-10T03:07:35;8.83;;;8.53;;
3050;SDS011;1535;51.098;6.414;2023-06-10T03:10:02;9.60;;;9.30;;
3050;SDS011;1535;51.098;6.414;2023-06-10T03:12:30;10.90;;;10.50;;
3050;SDS011;1535;51.098;6.414;2023-06-10T03:14:57;9.63;;;9.33;;
3050;SDS011;1535;51.098;6.414;2023-06-10T03:17:23;10.13;;;9.77;;
3050;SDS011;1535;51.098;6.414;2023-06-10T03:19:52;10.70;;;10.30;;
3050;SDS011;1535;51.098;6.414;2023-06-10T03:22:18;9.67;;;9.27;;
3050;SDS011;1535;51.098;6.414;2023-06-10T03:24:45;9.70;;;9.40;;
3050;SDS011;1535;51.098;6.414;2023-06-10T03:27:15;10.23;;;9.83;;
3050;SDS011;1535;51.098;6.414;2023-06-10T03:29:42;10.23;;;9.83;;
3050;SDS011;1535;51.098;6.414;2023-06-10T03:32:11;10.90;;;10.00;;
3050;SDS011;1535;51.098;6.414;2023-06-10T03:34:39;10.33;;;9.93;;
3050;SDS011;1535;51.098;6.414;2023-06-10T03:37:08;10.00;;;9.70;;
3050;SDS011;1535;51.098;6.414;2023-06-10T03:39:35;9.70;;;9.40;;
3050;SDS011;1535;51.098;6.414;2023-06-10T03:42:02;9.47;;;9.17;;
3050;SDS011;1535;51.098;6.414;2023-06-10T03:44:29;9.93;;;9.53;;
3050;SDS011;1535;51.098;6.414;2023-06-10T03:46:56;10.30;;;9.90;;
3050;SDS011;1535;51.098;6.414;2023-06-10T03:49:24;9.57;;;9.27;;
3050;SDS011;1535;51.098;6.414;2023-06-10T03:51:54;10.50;;;10.10;;
3050;SDS011;1535;51.098;6.414;2023-06-10T03:54:22;9.00;;;8.70;;
3050;SDS011;1535;51.098;6.414;2023-06-10T03:56:50;10.20;;;9.67;;
3050;SDS011;1535;51.098;6.414;2023-06-10T03:59:17;9.37;;;9.07;;
3050;SDS011;1535;51.098;6.414;2023-06-10T04:01:44;9.37;;;9.07;;
3050;SDS011;1535;51.098;6.414;2023-06-10T04:04:13;9.57;;;9.27;;
3050;SDS011;1535;51.098;6.414;2023-06-10T04:06:41;9.73;;;9.43;;
3050;SDS011;1535;51.098;6.414;2023-06-10T04:09:08;10.30;;;9.90;;
3050;SDS011;1535;51.098;6.414;2023-06-10T04:11:37;9.80;;;9.50;;
3050;SDS011;1535;51.098;6.414;2023-06-10T04:14:03;12.10;;;11.50;;
3050;SDS011;1535;51.098;6.414;2023-06-10T04:16:30;10.57;;;10.17;;
3050;SDS011;1535;51.098;6.414;2023-06-10T04:18:57;9.60;;;9.30;;
3050;SDS011;1535;51.098;6.414;2023-06-10T04:21:24;9.80;;;9.50;;
3050;SDS011;1535;51.098;6.414;2023-06-10T04:23:52;9.77;;;9.47;;
3050;SDS011;1535;51.098;6.414;2023-06-10T04:26:19;9.87;;;9.57;;
3050;SDS011;1535;51.098;6.414;2023-06-10T04:28:48;9.73;;;9.43;;
3050;SDS011;1535;51.098;6.414;2023-06-10T04:31:14;10.33;;;9.93;;
3050;SDS011;1535;51.098;6.414;2023-06-10T04:33:41;10.80;;;10.40;;
3050;SDS011;1535;51.098;6.414;2023-06-10T04:36:09;10.37;;;9.97;;
3050;SDS011;1535;51.098;6.414;2023-06-10T04:38:35;11.00;;;10.60;;
3050;SDS011;1535;51.098;6.414;2023-06-10T04:41:02;10.00;;;9.70;;
3050;SDS011;1535;51.098;6.414;2023-06-10T04:43:29;10.13;;;9.77;;
3050;SDS011;1535;51.098;6.414;2023-06-10T04:45:57;10.50;;;10.10;;
3050;SDS011;1535;51.098;6.414;2023-06-10T04:48:24;10.10;;;9.77;;
3050;SDS011;1535;51.098;6.414;2023-06-10T04:50:51;10.43;;;10.03;;
3050;SDS011;1535;51.098;6.414;2023-06-10T04:53:19;10.40;;;10.00;;
3050;SDS011;1535;51.098;6.414;2023-06-10T04:55:45;10.07;;;9.70;;
3050;SDS011;1535;51.098;6.414;2023-06-10T04:58:14;9.80;;;9.50;;
3050;SDS011;1535;51.098;6.414;2023-06-10T05:00:41;10.20;;;9.80;;
3050;SDS011;1535;51.098;6.414;2023-06-10T05:03:11;11.40;;;11.00;;
3050;SDS011;1535;51.098;6.414;2023-06-10T05:05:39;10.93;;;10.53;;
3050;SDS011;1535;51.098;6.414;2023-06-10T05:08:05;12.07;;;11.50;;
3050;SDS011;1535;51.098;6.414;2023-06-10T05:10:33;10.83;;;10.43;;
3050;SDS011;1535;51.098;6.414;2023-06-10T05:13:00;12.27;;;11.57;;
3050;SDS011;1535;51.098;6.414;2023-06-10T05:15:28;10.30;;;9.90;;
3050;SDS011;1535;51.098;6.414;2023-06-10T05:17:56;11.37;;;10.97;;
3050;SDS011;1535;51.098;6.414;2023-06-10T05:20:25;11.40;;;11.00;;
3050;SDS011;1535;51.098;6.414;2023-06-10T05:22:53;11.17;;;10.77;;
3050;SDS011;1535;51.098;6.414;2023-06-10T05:25:20;11.93;;;11.43;;
3050;SDS011;1535;51.098;6.414;2023-06-10T05:27:47;11.17;;;10.77;;
3050;SDS011;1535;51.098;6.414;2023-06-10T05:30:15;11.63;;;11.23;;
3050;SDS011;1535;51.098;6.414;2023-06-10T05:32:44;11.30;;;10.90;;
3050;SDS011;1535;51.098;6.414;2023-06-10T05:35:11;11.23;;;10.83;;
3050;SDS011;1535;51.098;6.414;2023-06-10T05:37:41;12.17;;;11.67;;
3050;SDS011;1535;51.098;6.414;2023-06-10T05:40:09;12.20;;;11.70;;
3050;SDS011;1535;51.098;6.414;2023-06-10T05:42:37;12.50;;;12.00;;
3050;SDS011;1535;51.098;6.414;2023-06-10T05:45:05;11.60;;;11.20;;
3050;SDS011;1535;51.098;6.414;2023-06-10T05:47:32;13.00;;;12.50;;
3050;SDS011;1535;51.098;6.414;2023-06-10T05:50:00;12.47;;;11.97;;
3050;SDS011;1535;51.098;6.414;2023-06-10T05:52:27;11.90;;;11.50;;
3050;SDS011;1535;51.098;6.414;2023-06-10T05:54:55;13.00;;;12.50;;
3050;SDS011;1535;51.098;6.414;2023-06-10T05:57:24;12.73;;;12.23;;
3050;SDS011;1535;51.098;6.414;2023-06-10T05:59:51;13.33;;;12.73;;
3050;SDS011;1535;51.098;6.414;2023-06-10T06:02:18;12.70;;;12.10;;
3050;SDS011;1535;51.098;6.414;2023-06-10T06:04:45;13.20;;;12.60;;
3050;SDS011;1535;51.098;6.414;2023-06-10T06:07:12;11.50;;;11.10;;
3050;SDS011;1535;51.098;6.414;2023-06-10T06:09:39;11.73;;;11.33;;
3050;SDS011;1535;51.098;6.414;2023-06-10T06:12:09;12.07;;;11.60;;
3050;SDS011;1535;51.098;6.414;2023-06-10T06:14:36;12.80;;;12.20;;
3050;SDS011;1535;51.098;6.414;2023-06-10T06:17:05;13.17;;;12.60;;
3050;SDS011;1535;51.098;6.414;2023-06-10T06:19:32;12.73;;;12.23;;
3050;SDS011;1535;51.098;6.414;2023-06-10T06:21:59;12.93;;;12.43;;
3050;SDS011;1535;51.098;6.414;2023-06-10T06:24:26;13.73;;;13.13;;
3050;SDS011;1535;51.098;6.414;2023-06-10T06:26:53;14.77;;;14.10;;
3050;SDS011;1535;51.098;6.414;2023-06-10T06:29:21;13.97;;;13.27;;
3050;SDS011;1535;51.098;6.414;2023-06-10T06:31:48;13.73;;;13.13;;
3050;SDS011;1535;51.098;6.414;2023-06-10T06:34:15;13.87;;;13.27;;
3050;SDS011;1535;51.098;6.414;2023-06-10T06:36:41;14.40;;;13.80;;
3050;SDS011;1535;51.098;6.414;2023-06-10T06:39:08;13.70;;;13.10;;
3050;SDS011;1535;51.098;6.414;2023-06-10T06:41:35;14.13;;;13.53;;
3050;SDS011;1535;51.098;6.414;2023-06-10T06:44:02;15.93;;;15.10;;
3050;SDS011;1535;51.098;6.414;2023-06-10T06:46:31;15.13;;;14.33;;
3050;SDS011;1535;51.098;6.414;2023-06-10T06:48:58;14.40;;;13.70;;
3050;SDS011;1535;51.098;6.414;2023-06-10T06:51:25;14.23;;;13.63;;
3050;SDS011;1535;51.098;6.414;2023-06-10T06:53:52;17.70;;;16.83;;
3050;SDS011;1535;51.098;6.414;2023-06-10T06:56:23;15.33;;;14.60;;
3050;SDS011;1535;51.098;6.414;2023-06-10T06:58:51;13.47;;;12.97;;
3050;SDS011;1535;51.098;6.414;2023-06-10T07:01:19;15.27;;;14.57;;
3050;SDS011;1535;51.098;6.414;2023-06-10T07:03:47;13.93;;;13.33;;
3050;SDS011;1535;51.098;6.414;2023-06-10T07:06:16;14.87;;;14.17;;
3050;SDS011;1535;51.098;6.414;2023-06-10T07:08:43;14.17;;;13.57;;
3050;SDS011;1535;51.098;6.414;2023-06-10T07:11:10;13.83;;;13.23;;
3050;SDS011;1535;51.098;6.414;2023-06-10T07:13:37;14.10;;;13.50;;
3050;SDS011;1535;51.098;6.414;2023-06-10T07:16:04;14.33;;;13.73;;
3050;SDS011;1535;51.098;6.414;2023-06-10T07:18:31;14.03;;;13.43;;
3050;SDS011;1535;51.098;6.414;2023-06-10T07:21:01;14.07;;;13.47;;
3050;SDS011;1535;51.098;6.414;2023-06-10T07:23:28;14.33;;;13.73;;
3050;SDS011;1535;51.098;6.414;2023-06-10T07:25:55;14.00;;;13.40;;
3050;SDS011;1535;51.098;6.414;2023-06-10T07:28:22;13.30;;;12.80;;
3050;SDS011;1535;51.098;6.414;2023-06-10T07:30:50;14.53;;;13.83;;
3050;SDS011;1535;51.098;6.414;2023-06-10T07:33:17;14.67;;;13.97;;
3050;SDS011;1535;51.098;6.414;2023-06-10T07:35:45;14.10;;;13.50;;
3050;SDS011;1535;51.098;6.414;2023-06-10T07:38:13;14.33;;;13.73;;
3050;SDS011;1535;51.098;6.414;2023-06-10T07:40:41;14.90;;;14.10;;
3050;SDS011;1535;51.098;6.414;2023-06-10T07:43:08;14.90;;;14.20;;
3050;SDS011;1535;51.098;6.414;2023-06-10T07:45:36;15.00;;;14.30;;
3050;SDS011;1535;51.098;6.414;2023-06-10T07:48:05;14.33;;;13.73;;
3050;SDS011;1535;51.098;6.414;2023-06-10T07:50:32;14.57;;;13.97;;
3050;SDS011;1535;51.098;6.414;2023-06-10T07:52:59;14.67;;;14.07;;
3050;SDS011;1535;51.098;6.414;2023-06-10T07:55:29;14.30;;;13.70;;
3050;SDS011;1535;51.098;6.414;2023-06-10T07:57:56;14.47;;;13.87;;
3050;SDS011;1535;51.098;6.414;2023-06-10T08:00:23;14.17;;;13.57;;
3050;SDS011;1535;51.098;6.414;2023-06-10T08:02:51;15.90;;;15.20;;
3050;SDS011;1535;51.098;6.414;2023-06-10T08:05:18;16.00;;;15.10;;
3050;SDS011;1535;51.098;6.414;2023-06-10T08:07:46;15.00;;;14.10;;
3050;SDS011;1535;51.098;6.414;2023-06-10T08:10:12;15.13;;;14.43;;
3050;SDS011;1535;51.098;6.414;2023-06-10T08:12:42;15.10;;;14.50;;
3050;SDS011;1535;51.098;6.414;2023-06-10T08:15:09;16.10;;;15.33;;
3050;SDS011;1535;51.098;6.414;2023-06-10T08:17:37;15.20;;;14.50;;
3050;SDS011;1535;51.098;6.414;2023-06-10T08:20:05;15.93;;;15.23;;
3050;SDS011;1535;51.098;6.414;2023-06-10T08:22:33;15.33;;;14.73;;
3050;SDS011;1535;51.098;6.414;2023-06-10T08:24:59;14.77;;;14.17;;
3050;SDS011;1535;51.098;6.414;2023-06-10T08:27:26;16.77;;;15.43;;
3050;SDS011;1535;51.098;6.414;2023-06-10T08:29:55;14.97;;;14.37;;
3050;SDS011;1535;51.098;6.414;2023-06-10T08:32:22;14.53;;;13.93;;
3050;SDS011;1535;51.098;6.414;2023-06-10T08:34:49;15.10;;;14.50;;
3050;SDS011;1535;51.098;6.414;2023-06-10T08:37:16;14.57;;;13.97;;
3050;SDS011;1535;51.098;6.414;2023-06-10T08:39:43;14.77;;;14.07;;
3050;SDS011;1535;51.098;6.414;2023-06-10T08:42:14;15.80;;;15.00;;
3050;SDS011;1535;51.098;6.414;2023-06-10T08:44:48;15.03;;;14.43;;
3050;SDS011;1535;51.098;6.414;2023-06-10T08:47:20;15.77;;;15.07;;
3050;SDS011;1535;51.098;6.414;2023-06-10T08:49:50;14.53;;;13.93;;
3050;SDS011;1535;51.098;6.414;2023-06-10T08:52:19;13.80;;;13.30;;
3050;SDS011;1535;51.098;6.414;2023-06-10T08:54:48;15.67;;;14.97;;
3050;SDS011;1535;51.098;6.414;2023-06-10T08:57:18;14.83;;;14.20;;
3050;SDS011;1535;51.098;6.414;2023-06-10T08:59:46;17.43;;;16.43;;
3050;SDS011;1535;51.098;6.414;2023-06-10T09:02:14;14.30;;;13.70;;
3050;SDS011;1535;51.098;6.414;2023-06-10T09:04:46;14.50;;;13.90;;
3050;SDS011;1535;51.098;6.414;2023-06-10T09:07:13;14.60;;;14.00;;
3050;SDS011;1535;51.098;6.414;2023-06-10T09:09:42;14.80;;;14.20;;
3050;SDS011;1535;51.098;6.414;2023-06-10T09:12:09;15.30;;;14.07;;
3050;SDS011;1535;51.098;6.414;2023-06-10T09:14:36;13.70;;;13.20;;
3050;SDS011;1535;51.098;6.414;2023-06-10T09:17:04;14.73;;;13.93;;
3050;SDS011;1535;51.098;6.414;2023-06-10T09:19:32;14.30;;;13.70;;
3050;SDS011;1535;51.098;6.414;2023-06-10T09:22:00;14.97;;;14.37;;
3050;SDS011;1535;51.098;6.414;2023-06-10T09:24:27;14.40;;;13.90;;
3050;SDS011;1535;51.098;6.414;2023-06-10T09:27:01;15.00;;;14.40;;
3050;SDS011;1535;51.098;6.414;2023-06-10T09:29:29;14.60;;;13.93;;
3050;SDS011;1535;51.098;6.414;2023-06-10T09:31:56;15.00;;;14.40;;
3050;SDS011;1535;51.098;6.414;2023-06-10T09:34:24;13.90;;;13.40;;
3050;SDS011;1535;51.098;6.414;2023-06-10T09:36:52;14.30;;;13.70;;
3050;SDS011;1535;51.098;6.414;2023-06-10T09:39:22;14.53;;;13.93;;
3050;SDS011;1535;51.098;6.414;2023-06-10T09:41:50;15.53;;;14.73;;
3050;SDS011;1535;51.098;6.414;2023-06-10T09:44:17;16.37;;;15.57;;
3050;SDS011;1535;51.098;6.414;2023-06-10T09:46:45;14.47;;;13.87;;
3050;SDS011;1535;51.098;6.414;2023-06-10T09:49:13;14.87;;;14.30;;
3050;SDS011;1535;51.098;6.414;2023-06-10T09:51:48;15.00;;;14.40;;
3050;SDS011;1535;51.098;6.414;2023-06-10T09:54:18;15.30;;;14.70;;
3050;SDS011;1535;51.098;6.414;2023-06-10T09:56:47;15.10;;;14.47;;
3050;SDS011;1535;51.098;6.414;2023-06-10T09:59:16;16.10;;;15.07;;
3050;SDS011;1535;51.098;6.414;2023-06-10T10:01:57;15.60;;;14.90;;
3050;SDS011;1535;51.098;6.414;2023-06-10T10:04:26;14.67;;;14.07;;
3050;SDS011;1535;51.098;6.414;2023-06-10T10:06:54;14.67;;;14.13;;
3050;SDS011;1535;51.098;6.414;2023-06-10T10:09:20;15.07;;;14.40;;
3050;SDS011;1535;51.098;6.414;2023-06-10T10:11:50;14.67;;;14.07;;
3050;SDS011;1535;51.098;6.414;2023-06-10T10:14:20;15.53;;;14.83;;
3050;SDS011;1535;51.098;6.414;2023-06-10T10:16:49;15.93;;;15.13;;
3050;SDS011;1535;51.098;6.414;2023-06-10T10:19:22;13.70;;;13.20;;
3050;SDS011;1535;51.098;6.414;2023-06-10T10:21:56;15.40;;;14.70;;
3050;SDS011;1535;51.098;6.414;2023-06-10T10:24:30;14.20;;;13.70;;
3050;SDS011;1535;51.098;6.414;2023-06-10T10:27:01;15.63;;;14.93;;
3050;SDS011;1535;51.098;6.414;2023-06-10T10:29:37;14.37;;;13.77;;
3050;SDS011;1535;51.098;6.414;2023-06-10T10:32:06;14.00;;;13.40;;
3050;SDS011;1535;51.098;6.414;2023-06-10T10:34:35;16.03;;;15.30;;
3050;SDS011;1535;51.098;6.414;2023-06-10T10:37:09;15.90;;;15.13;;
3050;SDS011;1535;51.098;6.414;2023-06-10T10:39:35;15.07;;;14.40;;
3050;SDS011;1535;51.098;6.414;2023-06-10T10:42:05;13.90;;;13.40;;
3050;SDS011;1535;51.098;6.414;2023-06-10T10:44:34;14.50;;;13.60;;
3050;SDS011;1535;51.098;6.414;2023-06-10T10:47:02;13.33;;;12.83;;
3050;SDS011;1535;51.098;6.414;2023-06-10T10:49:30;13.70;;;13.20;;
3050;SDS011;1535;51.098;6.414;2023-06-10T10:51:59;13.73;;;13.23;;
3050;SDS011;1535;51.098;6.414;2023-06-10T10:54:30;13.23;;;12.73;;
3050;SDS011;1535;51.098;6.414;2023-06-10T10:57:16;13.67;;;13.17;;
3050;SDS011;1535;51.098;6.414;2023-06-10T10:59:44;13.90;;;13.40;;
3050;SDS011;1535;51.098;6.414;2023-06-10T11:02:32;14.20;;;13.63;;
3050;SDS011;1535;51.098;6.414;2023-06-10T11:05:00;15.03;;;14.40;;
3050;SDS011;1535;51.098;6.414;2023-06-10T11:07:29;15.10;;;14.50;;
3050;SDS011;1535;51.098;6.414;2023-06-10T11:09:57;14.33;;;13.73;;
3050;SDS011;1535;51.098;6.414;2023-06-10T11:12:28;14.00;;;13.50;;
3050;SDS011;1535;51.098;6.414;2023-06-10T11:15:17;16.43;;;15.53;;
3050;SDS011;1535;51.098;6.414;2023-06-10T11:20:41;15.27;;;14.57;;
3050;SDS011;1535;51.098;6.414;2023-06-10T11:23:11;13.60;;;13.00;;
3050;SDS011;1535;51.098;6.414;2023-06-10T11:25:51;13.63;;;13.03;;
3050;SDS011;1535;51.098;6.414;2023-06-10T11:29:04;14.93;;;14.03;;
3050;SDS011;1535;51.098;6.414;2023-06-10T11:31:33;14.10;;;13.50;;
3050;SDS011;1535;51.098;6.414;2023-06-10T11:34:06;13.17;;;12.67;;
3050;SDS011;1535;51.098;6.414;2023-06-10T11:36:34;13.70;;;13.20;;
3050;SDS011;1535;51.098;6.414;2023-06-10T11:39:06;13.40;;;12.90;;
3050;SDS011;1535;51.098;6.414;2023-06-10T11:41:33;13.37;;;12.87;;
3050;SDS011;1535;51.098;6.414;2023-06-10T11:44:03;13.93;;;13.40;;
3050;SDS011;1535;51.098;6.414;2023-06-10T11:46:34;13.53;;;12.83;;
3050;SDS011;1535;51.098;6.414;2023-06-10T11:49:00;13.43;;;12.93;;
3050;SDS011;1535;51.098;6.414;2023-06-10T11:51:29;13.70;;;13.20;;
3050;SDS011;1535;51.098;6.414;2023-06-10T11:53:58;13.63;;;13.13;;
3050;SDS011;1535;51.098;6.414;2023-06-10T11:56:25;14.50;;;13.90;;
3050;SDS011;1535;51.098;6.414;2023-06-10T11:58:54;15.13;;;14.53;;
3050;SDS011;1535;51.098;6.414;2023-06-10T12:01:24;14.90;;;14.30;;
3050;SDS011;1535;51.098;6.414;2023-06-10T12:03:58;15.17;;;14.53;;
3050;SDS011;1535;51.098;6.414;2023-06-10T12:06:38;14.30;;;13.80;;
3050;SDS011;1535;51.098;6.414;2023-06-10T12:09:06;15.07;;;14.47;;
3050;SDS011;1535;51.098;6.414;2023-06-10T12:11:33;15.30;;;14.70;;
3050;SDS011;1535;51.098;6.414;2023-06-10T12:14:00;14.43;;;13.90;;
3050;SDS011;1535;51.098;6.414;2023-06-10T12:16:30;15.10;;;14.50;;
3050;SDS011;1535;51.098;6.414;2023-06-10T12:19:01;14.13;;;13.63;;
3050;SDS011;1535;51.098;6.414;2023-06-10T12:21:31;15.00;;;14.40;;
3050;SDS011;1535;51.098;6.414;2023-06-10T12:24:04;16.10;;;15.50;;
3050;SDS011;1535;51.098;6.414;2023-06-10T12:26:36;14.70;;;14.10;;
3050;SDS011;1535;51.098;6.414;2023-06-10T12:29:20;14.00;;;13.50;;
3050;SDS011;1535;51.098;6.414;2023-06-10T12:31:54;15.43;;;14.73;;
3050;SDS011;1535;51.098;6.414;2023-06-10T12:34:27;14.83;;;14.23;;
3050;SDS011;1535;51.098;6.414;2023-06-10T12:36:55;13.67;;;13.17;;
3050;SDS011;1535;51.098;6.414;2023-06-10T12:39:22;15.00;;;14.40;;
3050;SDS011;1535;51.098;6.414;2023-06-10T12:41:49;14.40;;;13.80;;
3050;SDS011;1535;51.098;6.414;2023-06-10T12:44:17;14.30;;;13.80;;
3050;SDS011;1535;51.098;6.414;2023-06-10T12:46:46;16.53;;;15.63;;
3050;SDS011;1535;51.098;6.414;2023-06-10T12:49:21;18.03;;;16.67;;
3050;SDS011;1535;51.098;6.414;2023-06-10T12:51:48;13.73;;;13.23;;
3050;SDS011;1535;51.098;6.414;2023-06-10T12:54:15;14.00;;;13.50;;
3050;SDS011;1535;51.098;6.414;2023-06-10T12:56:42;13.50;;;13.00;;
3050;SDS011;1535;51.098;6.414;2023-06-10T12:59:09;14.37;;;13.87;;
3050;SDS011;1535;51.098;6.414;2023-06-10T13:01:36;14.97;;;14.37;;
3050;SDS011;1535;51.098;6.414;2023-06-10T13:04:06;14.00;;;13.50;;
3050;SDS011;1535;51.098;6.414;2023-06-10T13:06:33;13.90;;;13.40;;
3050;SDS011;1535;51.098;6.414;2023-06-10T13:09:04;13.77;;;13.27;;
3050;SDS011;1535;51.098;6.414;2023-06-10T13:11:35;13.37;;;12.87;;
3050;SDS011;1535;51.098;6.414;2023-06-10T13:14:02;15.37;;;14.77;;
3050;SDS011;1535;51.098;6.414;2023-06-10T13:16:30;14.90;;;14.10;;
3050;SDS011;1535;51.098;6.414;2023-06-10T13:18:58;15.30;;;14.70;;
3050;SDS011;1535;51.098;6.414;2023-06-10T13:21:27;15.00;;;14.30;;
3050;SDS011;1535;51.098;6.414;2023-06-10T13:23:54;16.80;;;15.90;;
3050;SDS011;1535;51.098;6.414;2023-06-10T13:26:21;17.63;;;16.77;;
3050;SDS011;1535;51.098;6.414;2023-06-10T13:28:48;16.27;;;15.57;;
3050;SDS011;1535;51.098;6.414;2023-06-10T13:31:15;16.33;;;15.50;;
3050;SDS011;1535;51.098;6.414;2023-06-10T13:33:42;14.30;;;13.70;;
3050;SDS011;1535;51.098;6.414;2023-06-10T13:36:09;16.73;;;16.00;;
3050;SDS011;1535;51.098;6.414;2023-06-10T13:38:38;16.03;;;15.30;;
3050;SDS011;1535;51.098;6.414;2023-06-10T13:41:05;16.30;;;15.50;;
3050;SDS011;1535;51.098;6.414;2023-06-10T13:43:32;16.93;;;16.13;;
3050;SDS011;1535;51.098;6.414;2023-06-10T13:45:59;14.97;;;14.37;;
3050;SDS011;1535;51.098;6.414;2023-06-10T13:48:26;15.53;;;14.73;;
3050;SDS011;1535;51.098;6.414;2023-06-10T13:50:53;16.53;;;15.73;;
3050;SDS011;1535;51.098;6.414;2023-06-10T13:53:19;13.97;;;13.43;;
3050;SDS011;1535;51.098;6.414;2023-06-10T13:55:47;14.20;;;13.60;;
3050;SDS011;1535;51.098;6.414;2023-06-10T13:58:15;14.20;;;13.60;;
3050;SDS011;1535;51.098;6.414;2023-06-10T14:00:42;17.07;;;14.90;;
3050;SDS011;1535;51.098;6.414;2023-06-10T14:03:08;15.00;;;14.40;;
3050;SDS011;1535;51.098;6.414;2023-06-10T14:05:36;15.40;;;14.80;;
3050;SDS011;1535;51.098;6.414;2023-06-10T14:08:03;14.30;;;13.70;;
3050;SDS011;1535;51.098;6.414;2023-06-10T14:10:30;15.40;;;14.70;;
3050;SDS011;1535;51.098;6.414;2023-06-10T14:12:59;14.97;;;14.27;;
3050;SDS011;1535;51.098;6.414;2023-06-10T14:15:26;14.57;;;13.80;;
3050;SDS011;1535;51.098;6.414;2023-06-10T14:17:53;14.20;;;13.60;;
3050;SDS011;1535;51.098;6.414;2023-06-10T14:20:20;14.97;;;14.37;;
3050;SDS011;1535;51.098;6.414;2023-06-10T14:22:46;14.03;;;13.53;;
3050;SDS011;1535;51.098;6.414;2023-06-10T14:25:13;14.00;;;13.50;;
3050;SDS011;1535;51.098;6.414;2023-06-10T14:27:40;13.90;;;13.30;;
3050;SDS011;1535;51.098;6.414;2023-06-10T14:30:09;13.90;;;13.40;;
3050;SDS011;1535;51.098;6.414;2023-06-10T14:32:36;16.10;;;15.30;;
3050;SDS011;1535;51.098;6.414;2023-06-10T14:35:03;14.10;;;13.60;;
3050;SDS011;1535;51.098;6.414;2023-06-10T14:37:31;13.50;;;13.00;;
3050;SDS011;1535;51.098;6.414;2023-06-10T14:39:57;13.77;;;13.27;;
3050;SDS011;1535;51.098;6.414;2023-06-10T14:42:24;13.93;;;13.33;;
3050;SDS011;1535;51.098;6.414;2023-06-10T14:45:05;13.23;;;12.73;;
3050;SDS011;1535;51.098;6.414;2023-06-10T14:47:35;13.70;;;13.10;;
3050;SDS011;1535;51.098;6.414;2023-06-10T14:50:01;13.03;;;12.53;;
3050;SDS011;1535;51.098;6.414;2023-06-10T14:52:30;13.80;;;13.20;;
3050;SDS011;1535;51.098;6.414;2023-06-10T14:54:58;13.40;;;12.90;;
3050;SDS011;1535;51.098;6.414;2023-06-10T14:57:25;14.37;;;13.77;;
3050;SDS011;1535;51.098;6.414;2023-06-10T14:59:52;16.23;;;15.43;;
3050;SDS011;1535;51.098;6.414;2023-06-10T15:02:22;15.07;;;13.73;;
3050;SDS011;1535;51.098;6.414;2023-06-10T15:04:51;13.43;;;12.90;;